Minerva Zenia — SYNB — position and weather

sailwx.info

Track history (hours):
 
Tides and Currents Weather Stations Pressure Air Temp Water Temp Dewpoint Dewpoint Depression Visibility Wind Speed Wind Dir Waves Ship Positions

Minerva Zenia

Last reported at 2016-Jan-02 13:33 UTC. Time now 2016-Feb-10 02:45 UTC.
Position N 30°01' W 093°59'.
Warning: this ship's position is 38 days out of date.

Length 248 m; draft 11.6 m.

Type: Ship (hazmat cat A). MMSI: 240014000.

Date/timePositionNaut miles runAvg speedWind from/ knotsBaromVisibWave heightAir tempDewpointWater temp
2016-Jan-02 13:33N 30°01' W 093°59'1 0.4
2016-Jan-02 11:31N 30°01' W 093°60'0 0.0
2016-Jan-02 09:07N 30°01' W 093°60'0 0.0
2016-Jan-02 06:31N 30°01' W 093°60'0 0.0
2016-Jan-02 05:22N 30°01' W 093°60'0 0.0
2016-Jan-02 04:19N 30°01' W 093°60'0 0.0
2016-Jan-02 03:31N 30°01' W 093°60'0 0.0
2016-Jan-01 12:19N 30°01' W 093°60'0 0.0
2015-Dec-31 18:21N 30°01' W 093°60'3 3.4
2015-Dec-31 17:33N 29°60' W 093°57'4 4.4
2015-Dec-31 16:33N 29°59' W 093°52'5 4.6
2015-Dec-31 15:33N 29°54' W 093°54'6 6.1
2015-Dec-31 14:33N 29°49' W 093°58'7 6.6
2015-Dec-31 13:33N 29°44' W 093°52'9 8.6
2015-Dec-31 12:32N 29°36' W 093°48'1110.8
2015-Dec-31 11:32N 29°28' W 093°40'3 2.4
2015-Dec-31 10:15N 29°26' W 093°39'0 0.0
2015-Dec-31 07:20N 29°26' W 093°39'0 0.0
2015-Dec-31 00:26N 29°26' W 093°39'2 0.1
2015-Dec-30 13:27N 29°24' W 093°40'  
Track history (hours):
 
Tides and Currents Weather Stations Pressure Air Temp Water Temp Dewpoint Dewpoint Depression Visibility Wind Speed Wind Dir Waves Ship Positions

Minerva Zenia

Last reported at 2016-Jan-02 13:33 UTC. Time now 2016-Feb-10 02:45 UTC.
Position N 30°01' W 093°59'.
Warning: this ship's position is 38 days out of date.

Length 248 m; draft 11.6 m.

Type: Ship (hazmat cat A). MMSI: 240014000.

Date/timePositionNaut miles runAvg speedWind from/ knotsBaromVisibWave heightAir tempDewpointWater temp
2016-Jan-02 13:33N 30°01' W 093°59'1 0.4
2016-Jan-02 11:31N 30°01' W 093°60'0 0.0
2016-Jan-02 09:07N 30°01' W 093°60'0 0.0
2016-Jan-02 06:31N 30°01' W 093°60'0 0.0
2016-Jan-02 05:22N 30°01' W 093°60'0 0.0
2016-Jan-02 04:19N 30°01' W 093°60'0 0.0
2016-Jan-02 03:31N 30°01' W 093°60'0 0.0
2016-Jan-01 12:19N 30°01' W 093°60'0 0.0
2015-Dec-31 18:21N 30°01' W 093°60'3 3.4
2015-Dec-31 17:33N 29°60' W 093°57'4 4.4
2015-Dec-31 16:33N 29°59' W 093°52'5 4.6
2015-Dec-31 15:33N 29°54' W 093°54'6 6.1
2015-Dec-31 14:33N 29°49' W 093°58'7 6.6
2015-Dec-31 13:33N 29°44' W 093°52'9 8.6
2015-Dec-31 12:32N 29°36' W 093°48'1110.8
2015-Dec-31 11:32N 29°28' W 093°40'3 2.4
2015-Dec-31 10:15N 29°26' W 093°39'0 0.0
2015-Dec-31 07:20N 29°26' W 093°39'0 0.0
2015-Dec-31 00:26N 29°26' W 093°39'2 0.1
2015-Dec-30 13:27N 29°24' W 093°40'  

Dump ship's entire track history